Newcastle Airport
YWLM : rendu visible

Aérodrome :











RETROUVEZ-NOUS SUR...

 
LOGIN :

S'inscrire | Disclaimer

   EN    FR    IT 

 









Légende :    VFR   VFR Marginal   IFR   IFR Intensif   IFR Très Intensif
Visi : 
Plafond : 
>= 8 km
>= 3000ft
5 à 8 km
1000 à 3000 ft
1500m à 5 km
500 à 1000 ft
800 à 1500m
200 à 500 ft
< 800m
< 200 ft
Symboles :   Orages  Brouillard  Fortes neiges  Fortes précipitations  Vent > 20 kt






- Altitude de l'aérodrome : 31 ft
- Code IATA : NTL


YWLM - Newcastle

DERNIER METAR :
  • 091800Z AUTO 05004KT 9999 // OVC100 18/16 Q1021

METARs EXPIRÉS :
  • 091730Z AUTO 05003KT 9999 // SCT094 17/16 Q1021
  • 091700Z AUTO 10004KT 9999 // NCD 18/16 Q1021
  • 091630Z AUTO 07003KT 9999 // SCT058 18/16 Q1022
  • 091600Z AUTO 06004KT 9999 // SCT044 BKN055 18/16 Q1022
  • 091530Z AUTO 07004KT 9999 // OVC048 18/16 Q1022

TAF TAF YWLM
Valide du 09 à 18h jusqu'au 10 à 18h UTC


091711Z 0918/1018 02010KT 9999 -SHRA SCT012 BKN090
FM100000 34010KT 9999 -SHRA FEW015 BKN080
FM101400 30008KT 8000 HZ SCT010



MET'MAP, la Météo Aéronautique d'un coup d'oeil ! - Copyright ORBIFLY Décembre 2007 - Disclaimer

ORBIFLY MET'MAP TEAM :

Programmation & Développement : Alexandra Zaïnal
Sur une idée originale de : Baudouin d'Aumeries
Assistance à la programmation : Marc-Olivier Méhu
Soutien technique & logistique : Manuel Goepfert

Contact : metmap@orbifly.com




SOURCES & CREDITS :

   NOAA       Earth
Advisory